Time;durP1;ratioP1;P1;durP2;ratioP2;P2;SDS_P1;SDS_P2;PMS_P1;PMS_P2;Temp;Humidity;BMP_temperature;BMP_pressure;BME280_temperature;BME280_humidity;BME280_pressure;Samples;Min_cycle;Max_cycle;Signal;HPM_P1;HPM_P2
2023/11/30 00:02:17;;;;;;;8.05;5.28;;;;;;;-0.36;83.73;94509.09;5110093;28;20028;-66
2023/11/30 00:04:42;;;;;;;8.40;5.22;;;;;;;-0.45;83.64;94505.25;5111090;28;20105;-67
2023/11/30 00:07:11;;;;;;;7.03;4.32;;;;;;;-0.44;83.85;94506.09;5109918;28;20039;-67
2023/11/30 00:09:37;;;;;;;9.40;5.40;;;;;;;-0.56;84.09;94510.81;5109842;28;20039;-67
2023/11/30 00:12:03;;;;;;;7.10;5.30;;;;;;;-0.57;84.11;94505.81;5110062;28;20036;-66
2023/11/30 00:14:29;;;;;;;8.80;5.80;;;;;;;-0.44;83.72;94521.41;5110294;28;20035;-66
2023/11/30 00:16:54;;;;;;;6.22;4.40;;;;;;;-0.48;83.67;94521.53;5109587;28;20032;-67
2023/11/30 00:19:19;;;;;;;6.88;4.35;;;;;;;-0.41;83.06;94526.38;5109489;28;20031;-67
2023/11/30 00:21:45;;;;;;;6.10;4.55;;;;;;;-0.45;83.26;94525.66;5111172;28;20027;-67
2023/11/30 00:24:10;;;;;;;6.55;4.53;;;;;;;-0.44;83.25;94521.41;5111140;28;20020;-67
2023/11/30 00:26:36;;;;;;;6.20;4.22;;;;;;;-0.63;82.97;94506.91;5108219;28;20058;-67
2023/11/30 00:29:01;;;;;;;6.25;4.30;;;;;;;-0.63;83.30;94529.06;5109804;28;20028;-67
2023/11/30 00:31:26;;;;;;;5.55;4.18;;;;;;;-0.56;83.23;94527.88;5109391;28;20417;-67
2023/11/30 00:33:52;;;;;;;6.35;4.35;;;;;;;-0.64;83.19;94541.00;5126756;28;20032;-67
2023/11/30 00:36:17;;;;;;;6.32;3.80;;;;;;;-0.79;82.95;94511.03;5108203;28;20032;-66
2023/11/30 00:38:43;;;;;;;6.88;4.22;;;;;;;-0.60;83.28;94550.16;5109826;28;20023;-67
2023/11/30 00:41:13;;;;;;;4.72;3.63;;;;;;;-0.46;82.13;94540.16;5109425;28;20032;-67
2023/11/30 00:43:39;;;;;;;5.73;4.07;;;;;;;-0.53;82.44;94541.34;5109820;28;20515;-67
2023/11/30 00:46:04;;;;;;;5.15;3.83;;;;;;;-0.75;82.84;94540.63;5146320;27;20028;-67
2023/11/30 00:48:31;;;;;;;5.72;4.15;;;;;;;-0.48;81.70;94554.72;5112221;27;20075;-67
2023/11/30 00:50:56;;;;;;;5.38;4.43;;;;;;;-0.51;81.41;94551.47;5113466;28;20024;-67
2023/11/30 00:53:22;;;;;;;13.50;9.10;;;;;;;-0.57;80.84;94552.56;5111461;28;20461;-66
2023/11/30 00:55:47;;;;;;;11.85;9.25;;;;;;;-0.63;81.48;94555.38;5111278;27;20101;-67
2023/11/30 00:58:13;;;;;;;10.07;6.60;;;;;;;-0.58;81.14;94550.09;5111429;28;20035;-67
2023/11/30 01:00:38;;;;;;;5.68;4.20;;;;;;;-0.50;80.41;94565.91;5110898;28;20055;-68
2023/11/30 01:03:03;;;;;;;6.53;4.63;;;;;;;-0.79;80.03;94526.31;5092890;28;20028;-67
2023/11/30 01:05:29;;;;;;;5.13;4.10;;;;;;;-0.60;79.91;94562.09;5113288;28;20031;-66
2023/11/30 01:07:54;;;;;;;5.88;4.15;;;;;;;-0.74;80.75;94570.34;5113249;28;20031;-66
2023/11/30 01:10:20;;;;;;;6.72;4.60;;;;;;;-1.08;81.28;94541.16;5113288;28;20026;-66
2023/11/30 01:12:45;;;;;;;5.07;3.92;;;;;;;-0.86;82.06;94568.28;5113337;28;20441;-67
2023/11/30 01:15:10;;;;;;;4.28;3.20;;;;;;;-0.76;81.95;94551.69;5114718;28;20020;-67
2023/11/30 01:17:36;;;;;;;5.18;3.50;;;;;;;-0.82;82.54;94549.41;5096171;28;20032;-66
2023/11/30 01:20:01;;;;;;;6.03;3.88;;;;;;;-0.90;82.66;94563.31;5112668;28;20032;-67
2023/11/30 01:22:27;;;;;;;5.32;3.65;;;;;;;-0.83;82.81;94561.34;5111598;28;20024;-66
2023/11/30 01:24:52;;;;;;;5.28;3.90;;;;;;;-0.85;82.76;94567.41;5096081;28;20081;-66
2023/11/30 01:27:18;;;;;;;4.78;3.78;;;;;;;-0.99;83.30;94571.34;5112870;28;20032;-66
2023/11/30 01:29:43;;;;;;;4.72;3.55;;;;;;;-1.17;84.03;94552.56;5146888;27;20031;-67
2023/11/30 01:32:09;;;;;;;4.80;3.53;;;;;;;-0.93;83.99;94571.09;5128559;27;20053;-67
2023/11/30 01:34:34;;;;;;;5.13;3.78;;;;;;;-1.17;83.72;94538.97;5112741;28;20028;-67
2023/11/30 01:37:00;;;;;;;49.80;19.92;;;;;;;-1.04;83.53;94542.66;5147223;27;20028;-67
2023/11/30 01:39:26;;;;;;;26.05;11.32;;;;;;;-1.07;83.77;94554.72;5112467;28;20519;-67
2023/11/30 01:41:51;;;;;;;11.00;5.70;;;;;;;-0.88;84.25;94570.09;5112663;28;20036;-67
2023/11/30 01:44:17;;;;;;;11.45;5.82;;;;;;;-0.86;82.49;94546.19;5113888;28;20150;-67
2023/11/30 01:46:42;;;;;;;7.18;5.60;;;;;;;-0.80;79.85;94562.94;5113609;27;20051;-67
2023/11/30 01:49:08;;;;;;;12.57;9.25;;;;;;;-0.81;79.74;94566.38;5119972;27;20043;-67
2023/11/30 01:51:35;;;;;;;8.50;6.50;;;;;;;-0.76;79.76;94561.91;5092049;28;20032;-67
2023/11/30 01:54:00;;;;;;;8.20;6.18;;;;;;;-0.94;81.14;94574.56;5092100;28;20028;-67
2023/11/30 01:56:25;;;;;;;6.35;5.00;;;;;;;-0.90;81.19;94570.16;5090897;28;20032;-67
2023/11/30 01:58:51;;;;;;;6.82;4.50;;;;;;;-0.77;79.60;94575.56;5089560;28;20032;-67
2023/11/30 02:01:16;;;;;;;5.13;3.75;;;;;;;-0.96;79.90;94580.59;5112145;28;20036;-66
2023/11/30 02:03:42;;;;;;;6.30;3.90;;;;;;;-1.11;80.34;94579.53;5113558;28;20072;-67
2023/11/30 02:06:08;;;;;;;6.88;4.90;;;;;;;-1.00;80.89;94579.09;5110433;28;20104;-67
2023/11/30 02:08:33;;;;;;;9.13;4.55;;;;;;;-0.98;79.94;94590.84;5112505;28;20405;-66
2023/11/30 02:10:59;;;;;;;7.65;4.68;;;;;;;-0.92;79.65;94585.53;5113357;28;20023;-66
2023/11/30 02:13:25;;;;;;;5.78;4.45;;;;;;;-0.91;79.59;94584.63;5094916;28;20035;-67
2023/11/30 02:15:51;;;;;;;6.90;4.40;;;;;;;-0.89;79.73;94594.78;5111371;28;20020;-67
2023/11/30 02:18:16;;;;;;;6.50;4.47;;;;;;;-0.85;79.10;94595.47;5113181;28;20431;-67
2023/11/30 02:20:41;;;;;;;7.03;4.03;;;;;;;-0.99;79.11;94596.84;5094888;28;20031;-66
2023/11/30 02:23:07;;;;;;;6.20;3.80;;;;;;;-1.07;79.56;94604.00;5095027;28;20036;-67
2023/11/30 02:25:32;;;;;;;4.35;3.25;;;;;;;-1.15;78.68;94578.81;5076770;28;20031;-67
2023/11/30 02:27:58;;;;;;;5.35;3.45;;;;;;;-1.27;79.39;94611.63;5111942;28;20035;-67
2023/11/30 02:30:24;;;;;;;5.15;3.70;;;;;;;-1.10;78.55;94614.31;5111721;28;20038;-67
2023/11/30 02:32:50;;;;;;;4.80;3.30;;;;;;;-1.12;78.38;94596.53;5111492;28;20036;-67
2023/11/30 02:35:15;;;;;;;4.80;3.50;;;;;;;-1.02;78.66;94606.38;5111491;28;20485;-67
2023/11/30 02:37:41;;;;;;;6.20;3.53;;;;;;;-1.02;78.13;94612.28;5113208;28;20063;-67
2023/11/30 02:40:06;;;;;;;7.57;3.60;;;;;;;-1.12;78.01;94616.91;5112595;28;20034;-67
2023/11/30 02:42:32;;;;;;;6.03;3.75;;;;;;;-1.04;77.30;94621.72;5093062;28;20035;-67
2023/11/30 02:44:57;;;;;;;5.00;2.90;;;;;;;-1.06;77.32;94622.66;5112773;28;20425;-67
2023/11/30 02:47:23;;;;;;;5.30;4.20;;;;;;;-1.13;77.61;94625.47;5111267;28;20064;-68
2023/11/30 02:49:48;;;;;;;5.75;4.50;;;;;;;-1.19;78.11;94630.81;5094472;28;20020;-66
2023/11/30 02:52:14;;;;;;;6.03;4.78;;;;;;;-1.07;78.20;94624.41;5111134;28;20042;-67
2023/11/30 02:54:39;;;;;;;4.90;3.80;;;;;;;-1.08;77.24;94627.03;5111223;28;20390;-68
2023/11/30 02:57:04;;;;;;;7.03;4.95;;;;;;;-1.08;77.73;94632.94;5094217;28;20028;-67
2023/11/30 02:59:31;;;;;;;5.05;3.72;;;;;;;-1.09;78.47;94635.53;5111247;28;20031;-67
2023/11/30 03:01:56;;;;;;;5.97;4.18;;;;;;;-1.22;77.03;94632.66;5109630;28;20039;-67
2023/11/30 03:04:22;;;;;;;6.32;4.30;;;;;;;-1.26;77.86;94626.84;5110991;28;20027;-67
2023/11/30 03:06:48;;;;;;;5.57;4.25;;;;;;;-1.70;78.11;94618.38;5110906;28;20085;-67
2023/11/30 03:09:13;;;;;;;5.03;3.67;;;;;;;-1.80;79.85;94618.75;5094125;28;20110;-67
2023/11/30 03:11:39;;;;;;;7.47;4.38;;;;;;;-1.55;80.32;94625.44;5092878;28;20493;-67
2023/11/30 03:14:04;;;;;;;6.13;4.47;;;;;;;-1.44;80.34;94636.06;5090537;28;20028;-67
2023/11/30 03:16:29;;;;;;;5.05;3.67;;;;;;;-1.27;79.46;94629.47;5110240;28;20031;-67
2023/11/30 03:18:56;;;;;;;5.03;3.80;;;;;;;-1.35;77.88;94609.38;5143739;27;20047;-67
2023/11/30 03:21:22;;;;;;;6.05;4.50;;;;;;;-1.57;79.53;94635.69;5093914;28;20036;-66
2023/11/30 03:23:49;;;;;;;6.70;5.18;;;;;;;-1.67;79.65;94629.31;5111909;28;20386;-67
2023/11/30 03:26:17;;;;;;;6.22;4.78;;;;;;;-1.61;80.02;94630.78;5093780;28;20035;-67
2023/11/30 03:28:43;;;;;;;8.57;5.55;;;;;;;-1.83;80.43;94629.06;5110343;28;20028;-67
2023/11/30 03:31:08;;;;;;;10.07;6.65;;;;;;;-1.83;81.75;94633.31;5093512;28;20042;-67
2023/11/30 03:33:33;;;;;;;9.52;7.00;;;;;;;-1.95;81.39;94643.94;5110248;28;20493;-67
2023/11/30 03:35:59;;;;;;;10.75;6.70;;;;;;;-1.92;82.40;94638.72;5110194;28;20027;-67
2023/11/30 03:38:24;;;;;;;12.00;6.40;;;;;;;-2.04;81.71;94650.19;5108428;28;20034;-67
2023/11/30 03:40:50;;;;;;;9.05;6.70;;;;;;;-1.92;81.67;94649.78;5093282;28;20390;-67
2023/11/30 03:43:15;;;;;;;8.57;6.35;;;;;;;-1.83;81.50;94662.16;5111249;28;20493;-67
2023/11/30 03:45:41;;;;;;;8.55;6.30;;;;;;;-1.66;79.90;94650.50;5111873;28;20084;-67
2023/11/30 03:48:06;;;;;;;8.73;6.38;;;;;;;-1.98;81.77;94662.69;5108995;28;20512;-67
2023/11/30 03:50:31;;;;;;;10.40;6.57;;;;;;;-1.95;81.44;94644.78;5110434;28;20320;-67
2023/11/30 03:52:57;;;;;;;8.20;5.93;;;;;;;-1.92;82.40;94672.69;5126832;27;20040;-67
2023/11/30 03:55:23;;;;;;;7.88;5.80;;;;;;;-2.09;82.04;94667.34;5092272;28;20027;-67
2023/11/30 03:57:48;;;;;;;8.95;6.30;;;;;;;-1.97;82.65;94669.47;5093326;28;20120;-67
2023/11/30 04:00:14;;;;;;;10.80;6.78;;;;;;;-2.18;83.22;94681.25;5111366;28;20077;-67
2023/11/30 04:02:40;;;;;;;15.10;10.82;;;;;;;-1.82;83.33;94660.44;5111261;28;20494;-67
2023/11/30 04:05:07;;;;;;;14.57;9.13;;;;;;;-1.93;82.66;94665.91;5108663;28;20401;-67
2023/11/30 04:07:32;;;;;;;14.57;9.00;;;;;;;-1.90;83.30;94658.16;5093201;28;20043;-66
2023/11/30 04:09:58;;;;;;;11.15;7.18;;;;;;;-2.01;83.02;94675.53;5110115;28;20024;-67
2023/11/30 04:12:24;;;;;;;17.33;12.23;;;;;;;-1.72;82.04;94666.03;5111543;28;20035;-67
2023/11/30 04:14:50;;;;;;;12.68;8.77;;;;;;;-2.20;82.58;94660.13;5100586;28;20271;-67
2023/11/30 04:17:15;;;;;;;8.98;5.72;;;;;;;-1.85;81.93;94658.00;5089689;28;20422;-66
2023/11/30 04:19:41;;;;;;;10.35;6.80;;;;;;;-2.13;83.41;94687.00;5092456;28;20028;-67
2023/11/30 04:22:07;;;;;;;25.33;17.30;;;;;;;-2.02;82.66;94658.63;5094809;28;20050;-66
2023/11/30 04:24:33;;;;;;;21.85;15.05;;;;;;;-2.18;83.87;94682.97;5097202;28;20023;-67
2023/11/30 04:26:58;;;;;;;13.38;9.93;;;;;;;-2.07;83.14;94663.88;5115512;28;20440;-67
2023/11/30 04:29:23;;;;;;;19.33;14.40;;;;;;;-1.90;82.76;94667.53;5114162;28;20031;-67
2023/11/30 04:31:49;;;;;;;11.68;8.82;;;;;;;-1.82;81.29;94635.78;5095894;28;20485;-66
2023/11/30 04:34:14;;;;;;;7.45;5.18;;;;;;;-2.07;81.24;94640.13;5131159;27;20031;-67
2023/11/30 04:36:40;;;;;;;10.38;6.30;;;;;;;-1.98;81.35;94646.59;5113954;28;20057;-67
2023/11/30 04:39:06;;;;;;;7.78;5.47;;;;;;;-1.93;80.38;94653.19;5097005;28;20027;-66
2023/11/30 04:41:31;;;;;;;18.48;12.85;;;;;;;-1.99;81.34;94671.25;5112068;28;20084;-67
2023/11/30 04:43:56;;;;;;;9.50;6.68;;;;;;;-1.94;80.52;94641.34;5130816;27;20409;-67
2023/11/30 04:46:22;;;;;;;17.83;12.52;;;;;;;-2.24;81.02;94658.56;5147810;27;20039;-67
2023/11/30 04:48:47;;;;;;;16.13;11.35;;;;;;;-1.96;80.50;94652.47;5113952;28;20065;-67
2023/11/30 04:51:13;;;;;;;6.13;5.53;;;;;;;-2.23;80.56;94631.38;5129384;27;20406;-66
2023/11/30 04:53:38;;;;;;;6.65;4.65;;;;;;;-2.33;79.52;94658.91;5130748;27;20024;-67
2023/11/30 04:56:04;;;;;;;5.60;3.65;;;;;;;-2.28;79.22;94641.75;5114838;28;20455;-66
2023/11/30 04:58:29;;;;;;;7.05;4.63;;;;;;;-2.64;79.87;94631.16;5111765;28;20054;-66
2023/11/30 05:00:55;;;;;;;8.32;5.00;;;;;;;-2.59;82.17;94667.41;5096436;28;20038;-67
2023/11/30 05:03:20;;;;;;;7.68;5.93;;;;;;;-2.42;80.69;94675.31;5114667;28;20028;-66
2023/11/30 05:05:46;;;;;;;12.07;8.52;;;;;;;-2.30;80.70;94679.97;5113067;28;20409;-66
2023/11/30 05:08:11;;;;;;;29.33;20.52;;;;;;;-2.57;81.65;94684.28;5112043;28;20035;-67
2023/11/30 05:10:36;;;;;;;42.85;28.23;;;;;;;-2.50;83.13;94692.56;5094701;28;20027;-67
2023/11/30 05:13:02;;;;;;;39.95;28.08;;;;;;;-2.23;82.05;94697.56;5111746;28;20027;-70
2023/11/30 05:15:27;;;;;;;36.65;26.13;;;;;;;-2.50;82.19;94718.00;5113370;28;20027;-66
2023/11/30 05:17:53;;;;;;;32.13;20.58;;;;;;;-2.33;82.30;94730.97;5112686;28;20035;-67
2023/11/30 05:20:18;;;;;;;29.23;20.08;;;;;;;-2.31;81.42;94701.22;5091892;28;20069;-66
2023/11/30 05:22:44;;;;;;;29.33;21.13;;;;;;;-2.37;82.08;94734.50;5123052;27;20419;-66
2023/11/30 05:25:09;;;;;;;38.30;26.70;;;;;;;-2.07;80.57;94737.69;5091479;28;20116;-67
2023/11/30 05:27:35;;;;;;;34.83;23.77;;;;;;;-2.23;80.81;94751.84;5111576;27;20336;-66
2023/11/30 05:30:00;;;;;;;29.55;20.70;;;;;;;-2.02;80.02;94752.81;5112908;28;20032;-66
2023/11/30 05:32:26;;;;;;;30.52;19.38;;;;;;;-2.17;80.32;94740.63;5108552;28;20569;-71
2023/11/30 05:34:51;;;;;;;24.05;15.05;;;;;;;-2.17;80.51;94743.16;5105152;28;20176;-68
2023/11/30 05:37:17;;;;;;;22.10;15.00;;;;;;;-2.28;81.42;94736.75;5102249;28;20066;-67
2023/11/30 05:39:45;;;;;;;23.65;16.00;;;;;;;-2.20;80.52;94746.66;5122517;27;20560;-68
2023/11/30 05:42:11;;;;;;;22.45;13.35;;;;;;;-2.31;81.64;94752.13;5092888;27;20035;-69
2023/11/30 05:44:37;;;;;;;20.20;13.98;;;;;;;-2.30;82.65;94761.41;5110919;27;20035;-68
2023/11/30 05:47:02;;;;;;;23.08;15.80;;;;;;;-2.09;82.08;94756.44;5089721;27;20051;-68
2023/11/30 05:49:28;;;;;;;20.20;13.43;;;;;;;-2.11;80.89;94732.78;5108621;27;20020;-68
2023/11/30 05:51:53;;;;;;;23.75;13.27;;;;;;;-2.08;80.84;94740.31;5106501;28;20036;-68
2023/11/30 05:54:19;;;;;;;25.00;15.82;;;;;;;-2.22;81.61;94730.59;5105768;28;20042;-68
2023/11/30 05:56:45;;;;;;;24.38;15.02;;;;;;;-1.99;80.71;94746.78;5105557;28;20039;-68
2023/11/30 05:59:12;;;;;;;79.53;42.10;;;;;;;-2.10;80.73;94747.16;5108764;28;20043;-68
2023/11/30 06:01:37;;;;;;;59.10;34.38;;;;;;;-2.44;81.94;94748.31;5090641;28;20032;-68
2023/11/30 06:04:03;;;;;;;42.50;26.77;;;;;;;-2.22;80.66;94717.06;5090357;28;20031;-68
2023/11/30 06:06:29;;;;;;;44.97;24.98;;;;;;;-1.94;79.85;94757.66;5106284;28;20036;-68
2023/11/30 06:08:54;;;;;;;35.15;21.08;;;;;;;-2.22;80.15;94750.16;5109058;28;20085;-68
2023/11/30 06:11:20;;;;;;;32.05;19.85;;;;;;;-2.18;81.48;94759.31;5088070;28;20559;-68
2023/11/30 06:13:45;;;;;;;26.27;16.90;;;;;;;-2.10;80.60;94759.91;5110069;28;20038;-68
2023/11/30 06:16:11;;;;;;;17.48;11.73;;;;;;;-2.25;79.27;94716.28;5107095;28;20023;-68
2023/11/30 06:18:36;;;;;;;18.33;10.60;;;;;;;-2.08;79.51;94770.88;5108074;28;20027;-68
2023/11/30 06:21:02;;;;;;;15.80;10.13;;;;;;;-2.14;79.76;94751.53;5107412;28;20105;-68
2023/11/30 06:23:27;;;;;;;12.38;8.75;;;;;;;-2.07;78.61;94750.44;5108144;28;20103;-68
2023/11/30 06:25:53;;;;;;;12.07;8.45;;;;;;;-2.05;78.67;94746.13;5088522;28;20485;-68
2023/11/30 06:28:20;;;;;;;12.63;9.38;;;;;;;-2.36;80.44;94751.44;5107852;28;20482;-68
2023/11/30 06:30:47;;;;;;;28.75;16.05;;;;;;;-2.18;79.22;94741.50;5122568;27;20235;-69
2023/11/30 06:33:12;;;;;;;43.85;22.92;;;;;;;-1.95;79.23;94756.84;5090115;28;20032;-69
2023/11/30 06:35:38;;;;;;;45.10;22.50;;;;;;;-2.06;79.95;94746.19;5103582;27;20100;-72
2023/11/30 06:38:03;;;;;;;26.88;13.75;;;;;;;-1.72;79.69;94760.28;5091110;28;20028;-68
2023/11/30 06:40:29;;;;;;;18.63;10.77;;;;;;;-1.64;79.43;94765.94;5108699;28;20035;-69
2023/11/30 06:42:55;;;;;;;12.88;8.50;;;;;;;-1.74;79.27;94741.66;5106929;28;20032;-71
2023/11/30 06:45:20;;;;;;;11.45;8.63;;;;;;;-1.64;79.55;94760.84;5105969;27;20078;-71
2023/11/30 06:47:46;;;;;;;12.57;8.13;;;;;;;-1.58;79.86;94775.88;5088212;28;20442;-68
2023/11/30 06:50:12;;;;;;;10.88;7.50;;;;;;;-1.59;79.74;94764.00;5107711;28;20042;-71
2023/11/30 06:52:37;;;;;;;10.20;7.05;;;;;;;-1.59;79.35;94753.81;5107487;28;20490;-78
2023/11/30 06:55:03;;;;;;;12.48;8.50;;;;;;;-1.56;79.52;94776.69;5071297;28;20027;-71
2023/11/30 06:57:29;;;;;;;12.07;7.97;;;;;;;-1.51;79.63;94773.94;5069739;28;20501;-72
2023/11/30 06:59:54;;;;;;;14.13;9.43;;;;;;;-1.47;79.10;94748.31;5085693;28;20479;-71
2023/11/30 07:02:20;;;;;;;14.38;9.68;;;;;;;-1.21;79.68;94788.09;5089446;28;20417;-71
2023/11/30 07:04:46;;;;;;;16.05;10.05;;;;;;;-1.14;79.42;94787.00;5111812;27;20114;-71
2023/11/30 07:07:14;;;;;;;18.85;11.90;;;;;;;-1.06;79.13;94794.34;5106365;28;20047;-71
2023/11/30 07:09:40;;;;;;;21.25;12.35;;;;;;;-1.06;79.17;94812.19;5105820;28;20035;-70
2023/11/30 07:12:06;;;;;;;23.02;13.43;;;;;;;-1.03;79.81;94778.09;5120450;27;20032;-71
2023/11/30 07:14:31;;;;;;;17.88;10.63;;;;;;;-1.04;79.47;94777.25;5121722;27;20396;-70
2023/11/30 07:16:57;;;;;;;17.83;10.80;;;;;;;-0.88;79.89;94803.03;5102323;28;20417;-69
2023/11/30 07:19:22;;;;;;;15.02;9.30;;;;;;;-0.76;79.81;94802.53;5106054;28;20508;-69
2023/11/30 07:21:49;;;;;;;16.10;9.93;;;;;;;-0.71;79.34;94794.72;5105320;28;20032;-70
2023/11/30 07:24:14;;;;;;;14.95;10.35;;;;;;;-0.67;78.98;94783.47;5085474;28;20030;-69
2023/11/30 07:26:40;;;;;;;18.35;10.88;;;;;;;-0.65;78.63;94779.16;5106726;28;20024;-70
2023/11/30 07:29:05;;;;;;;18.25;10.73;;;;;;;-0.64;78.45;94785.94;5102060;28;20035;-70
2023/11/30 07:31:31;;;;;;;14.68;9.65;;;;;;;-0.40;78.12;94799.41;5100883;28;20039;-70
2023/11/30 07:33:56;;;;;;;15.70;9.65;;;;;;;-0.49;78.38;94799.78;5121604;27;20481;-69
2023/11/30 07:36:21;;;;;;;14.15;9.60;;;;;;;-0.40;78.75;94809.63;5097632;28;20089;-69
2023/11/30 07:38:48;;;;;;;14.35;8.95;;;;;;;-0.41;78.53;94812.25;5070360;28;20429;-70
2023/11/30 07:41:14;;;;;;;13.25;8.20;;;;;;;-0.35;78.72;94801.78;5084773;28;20039;-69
2023/11/30 07:43:39;;;;;;;10.95;7.20;;;;;;;-0.37;79.11;94795.91;5086124;28;20035;-70
2023/11/30 07:46:05;;;;;;;11.77;7.72;;;;;;;-0.88;80.30;94786.88;5106112;28;20043;-69
2023/11/30 07:48:32;;;;;;;12.77;6.88;;;;;;;-0.67;80.35;94793.69;5104558;28;20051;-69
2023/11/30 07:50:58;;;;;;;15.32;10.13;;;;;;;-0.51;79.87;94797.28;5106571;28;20023;-69
2023/11/30 07:53:23;;;;;;;12.45;7.80;;;;;;;-0.41;79.23;94814.81;5104299;28;20047;-70
2023/11/30 07:55:50;;;;;;;11.27;7.32;;;;;;;-0.35;80.28;94817.13;5087402;28;20024;-70
2023/11/30 07:58:15;;;;;;;14.23;8.77;;;;;;;-0.20;79.77;94796.06;5101606;28;20036;-70
2023/11/30 08:00:41;;;;;;;14.60;9.30;;;;;;;0.05;80.29;94807.81;5102919;28;20032;-70
2023/11/30 08:03:06;;;;;;;12.98;8.57;;;;;;;0.16;79.72;94810.75;5103820;28;20035;-76
2023/11/30 08:05:32;;;;;;;11.90;7.90;;;;;;;0.25;79.71;94805.22;5122568;27;20044;-69
2023/11/30 08:07:57;;;;;;;11.80;7.72;;;;;;;0.13;80.08;94793.81;5106215;28;20024;-69
2023/11/30 08:10:23;;;;;;;10.82;7.10;;;;;;;0.08;80.73;94800.00;5108167;28;20028;-69
2023/11/30 08:12:48;;;;;;;10.63;7.45;;;;;;;0.19;79.99;94787.63;5088469;28;20046;-69
2023/11/30 08:15:14;;;;;;;11.57;7.25;;;;;;;0.30;79.74;94800.75;5087282;28;20447;-69
2023/11/30 08:17:40;;;;;;;12.38;7.68;;;;;;;0.10;79.79;94773.50;5106707;28;20268;-70
2023/11/30 08:20:13;;;;;;;10.85;7.28;;;;;;;0.22;80.56;94796.00;5103630;28;20016;-69
2023/11/30 08:22:38;;;;;;;11.77;7.07;;;;;;;-0.01;80.59;94807.16;5089688;28;20577;-69
2023/11/30 08:25:05;;;;;;;10.80;7.53;;;;;;;0.19;80.93;94802.94;5087865;28;20024;-69
2023/11/30 08:27:30;;;;;;;11.73;7.90;;;;;;;0.16;80.30;94813.28;5088414;28;20036;-69
2023/11/30 08:29:56;;;;;;;12.45;8.38;;;;;;;0.21;81.43;94809.66;5087004;28;20042;-69
2023/11/30 08:32:21;;;;;;;13.38;8.80;;;;;;;0.24;81.27;94816.34;5103473;28;20458;-69
2023/11/30 08:34:46;;;;;;;15.07;9.18;;;;;;;0.45;80.75;94814.63;5106474;28;20019;-70
2023/11/30 08:37:12;;;;;;;14.48;9.75;;;;;;;0.64;80.57;94818.03;5105313;28;20031;-69
2023/11/30 08:39:37;;;;;;;13.35;9.85;;;;;;;0.81;80.30;94819.84;5103483;28;20016;-69
2023/11/30 08:42:03;;;;;;;48.75;24.00;;;;;;;0.72;80.47;94840.69;5105869;28;20062;-69
2023/11/30 08:44:29;;;;;;;32.97;20.67;;;;;;;0.84;80.46;94822.25;5106127;28;20136;-70
2023/11/30 08:46:54;;;;;;;29.85;19.55;;;;;;;1.00;80.04;94832.63;5087323;28;20060;-69
2023/11/30 08:49:20;;;;;;;29.73;20.55;;;;;;;0.96;79.33;94814.94;5104535;28;20077;-68
2023/11/30 08:51:45;;;;;;;30.17;20.42;;;;;;;0.84;79.53;94806.09;5086897;28;20035;-69
2023/11/30 08:54:11;;;;;;;30.42;20.75;;;;;;;0.96;79.69;94809.81;5071978;28;20038;-68
2023/11/30 08:56:37;;;;;;;34.85;21.88;;;;;;;0.89;80.18;94799.00;5071274;28;20039;-70
2023/11/30 08:59:03;;;;;;;27.92;18.83;;;;;;;0.84;78.66;94804.38;5103486;28;20020;-69
2023/11/30 09:01:28;;;;;;;28.63;18.40;;;;;;;0.92;79.22;94808.28;5105404;28;20058;-67
2023/11/30 09:03:54;;;;;;;36.05;23.98;;;;;;;0.61;80.48;94796.88;5108842;28;20536;-68
2023/11/30 09:06:19;;;;;;;35.50;22.75;;;;;;;0.68;80.42;94795.72;5092703;28;20539;-68
2023/11/30 09:08:44;;;;;;;36.67;23.45;;;;;;;0.38;81.35;94752.69;5094512;28;20507;-68
2023/11/30 09:11:13;;;;;;;38.60;23.58;;;;;;;0.57;81.95;94792.81;5112957;28;20081;-71
2023/11/30 09:13:38;;;;;;;39.63;24.55;;;;;;;0.64;81.66;94792.47;5095073;28;20046;-73
2023/11/30 09:16:04;;;;;;;38.03;24.23;;;;;;;0.55;81.63;94754.50;5094561;28;20497;-68
2023/11/30 09:18:29;;;;;;;37.78;23.08;;;;;;;0.54;81.37;94775.03;5091177;28;20078;-69
2023/11/30 09:20:54;;;;;;;40.85;24.58;;;;;;;0.37;82.91;94760.44;5114106;27;20504;-69
2023/11/30 09:23:20;;;;;;;38.50;23.13;;;;;;;0.41;81.99;94756.84;5114215;28;20023;-69
2023/11/30 09:25:45;;;;;;;40.38;24.73;;;;;;;0.34;82.18;94751.19;5089793;28;20036;-68
2023/11/30 09:28:11;;;;;;;44.83;23.58;;;;;;;0.12;82.29;94741.06;5093453;28;20039;-69
2023/11/30 09:30:36;;;;;;;32.05;18.30;;;;;;;-0.21;83.23;94752.72;5074851;28;20027;-69
2023/11/30 09:33:03;;;;;;;37.25;23.25;;;;;;;-0.14;83.80;94746.44;5090364;28;20047;-69
2023/11/30 09:35:28;;;;;;;36.92;22.88;;;;;;;-0.03;84.10;94747.69;5089731;28;20085;-70
2023/11/30 09:37:54;;;;;;;39.60;22.13;;;;;;;-0.01;83.49;94727.16;5114177;28;20035;-69
2023/11/30 09:40:19;;;;;;;42.67;24.00;;;;;;;-0.08;83.57;94724.06;5112658;28;20035;-69
2023/11/30 09:42:45;;;;;;;47.05;25.67;;;;;;;-0.31;84.59;94707.13;5112954;28;20031;-70
2023/11/30 09:45:11;;;;;;;46.50;25.77;;;;;;;-0.19;84.46;94735.63;5094930;28;20062;-71
2023/11/30 09:47:36;;;;;;;44.15;25.88;;;;;;;-0.27;84.77;94712.97;5109086;28;20052;-70
2023/11/30 09:50:02;;;;;;;48.28;27.30;;;;;;;0.07;84.04;94743.00;5112450;28;20546;-70
2023/11/30 09:52:28;;;;;;;48.20;25.38;;;;;;;0.06;84.40;94727.75;5119797;27;20061;-70
2023/11/30 09:54:57;;;;;;;47.35;24.92;;;;;;;-0.02;83.72;94736.56;5095151;28;20107;-70
2023/11/30 09:57:25;;;;;;;47.00;25.90;;;;;;;-0.26;84.38;94724.81;5075759;28;20055;-69
2023/11/30 09:59:51;;;;;;;45.08;26.52;;;;;;;-0.31;84.61;94713.97;5110803;28;20320;-70
2023/11/30 10:02:17;;;;;;;48.85;26.38;;;;;;;-0.13;83.68;94710.66;5113624;27;20028;-72
2023/11/30 10:04:42;;;;;;;46.80;24.55;;;;;;;-0.15;83.78;94709.88;5076313;28;20059;-74
2023/11/30 10:07:08;;;;;;;50.33;27.15;;;;;;;-0.25;84.29;94718.84;5097329;28;20486;-70
2023/11/30 10:09:35;;;;;;;48.95;27.00;;;;;;;-0.27;84.41;94712.97;5112874;28;20493;-70
2023/11/30 10:12:01;;;;;;;42.65;24.90;;;;;;;-0.29;84.41;94701.97;5090506;28;20109;-71
2023/11/30 10:14:26;;;;;;;46.97;26.00;;;;;;;-0.20;83.84;94714.34;5120944;27;20482;-69
2023/11/30 10:16:52;;;;;;;42.47;24.27;;;;;;;-0.09;83.27;94696.84;5108680;28;20031;-71
2023/11/30 10:19:18;;;;;;;39.55;22.70;;;;;;;-0.11;82.66;94688.44;5145605;27;20028;-71
2023/11/30 10:21:43;;;;;;;46.05;25.42;;;;;;;-0.14;82.40;94682.59;5108819;28;20040;-71
2023/11/30 10:24:08;;;;;;;42.67;24.75;;;;;;;0.10;83.40;94681.53;5110432;28;20028;-71
2023/11/30 10:26:35;;;;;;;42.63;23.60;;;;;;;-0.08;82.94;94693.41;5093370;28;20039;-71
2023/11/30 10:29:06;;;;;;;44.25;24.60;;;;;;;-0.26;83.33;94681.41;5093449;28;20397;-71
2023/11/30 10:31:35;;;;;;;43.88;23.88;;;;;;;-0.49;84.14;94667.91;5095399;28;20123;-71
2023/11/30 10:34:32;;;;;;;39.75;22.33;;;;;;;-0.37;84.89;94674.22;5095130;28;20492;-71
2023/11/30 10:37:00;;;;;;;37.70;20.95;;;;;;;-0.15;83.92;94675.84;5110578;28;20039;-71
2023/11/30 10:39:26;;;;;;;41.40;22.55;;;;;;;-0.10;83.64;94672.22;5095088;28;20077;-71
2023/11/30 10:41:52;;;;;;;38.30;21.92;;;;;;;-0.37;84.89;94675.94;5077592;28;20043;-71
2023/11/30 10:44:20;;;;;;;40.45;24.45;;;;;;;-0.49;84.33;94683.22;5111476;28;20023;-71
2023/11/30 10:46:46;;;;;;;39.42;21.70;;;;;;;-0.20;84.00;94704.13;5111263;28;20077;-71
2023/11/30 10:49:12;;;;;;;37.95;22.00;;;;;;;-0.26;83.83;94709.50;5111442;28;20072;-71
2023/11/30 10:51:37;;;;;;;38.60;20.50;;;;;;;0.11;82.71;94720.69;5077372;28;20043;-71
2023/11/30 10:54:34;;;;;;;37.97;21.30;;;;;;;0.37;81.37;94719.56;5094488;28;20031;-72
2023/11/30 10:57:00;;;;;;;32.80;19.73;;;;;;;0.19;82.32;94706.69;5098962;28;20130;-71
2023/11/30 10:59:28;;;;;;;39.03;22.25;;;;;;;0.23;82.63;94702.28;5094314;28;20036;-71
2023/11/30 11:01:54;;;;;;;35.38;20.52;;;;;;;0.43;82.26;94699.66;5111183;28;20031;-71
2023/11/30 11:04:28;;;;;;;42.03;24.48;;;;;;;0.50;82.22;94699.38;5111100;28;20410;-71
2023/11/30 11:07:03;;;;;;;43.25;23.77;;;;;;;0.47;81.91;94686.72;5095038;28;20115;-71
2023/11/30 11:09:39;;;;;;;42.95;23.00;;;;;;;0.43;82.13;94674.09;5111081;28;20026;-71
2023/11/30 11:12:05;;;;;;;40.10;22.27;;;;;;;0.64;81.93;94662.06;5094258;28;20042;-71
2023/11/30 11:14:34;;;;;;;39.22;21.98;;;;;;;0.69;81.38;94648.22;5094076;28;20098;-71
2023/11/30 11:17:07;;;;;;;40.58;22.05;;;;;;;0.92;81.39;94622.41;5110846;28;20028;-71
2023/11/30 11:19:32;;;;;;;35.58;20.67;;;;;;;1.03;80.84;94609.06;5077211;28;20106;-71
2023/11/30 11:21:58;;;;;;;34.67;19.58;;;;;;;1.01;81.23;94614.28;5093678;28;20410;-71